sensor_id;sensor_type;location;lat;lon;timestamp;temperature;humidity
36548;DHT22;22551;52.206;4.856;2023-05-02T00:04:10;10.70;99.90
36548;DHT22;22551;52.206;4.856;2023-05-02T00:09:13;10.70;99.90
36548;DHT22;22551;52.206;4.856;2023-05-02T00:14:15;10.70;99.90
36548;DHT22;22551;52.206;4.856;2023-05-02T00:19:19;10.70;99.90
36548;DHT22;22551;52.206;4.856;2023-05-02T00:24:22;10.80;99.90
36548;DHT22;22551;52.206;4.856;2023-05-02T00:29:26;10.70;99.90
36548;DHT22;22551;52.206;4.856;2023-05-02T00:34:30;10.70;99.90
36548;DHT22;22551;52.206;4.856;2023-05-02T00:39:33;10.60;99.90
36548;DHT22;22551;52.206;4.856;2023-05-02T00:44:35;10.60;99.90
36548;DHT22;22551;52.206;4.856;2023-05-02T00:49:39;10.50;99.90
36548;DHT22;22551;52.206;4.856;2023-05-02T00:54:42;10.50;99.90
36548;DHT22;22551;52.206;4.856;2023-05-02T00:59:45;10.50;99.90
36548;DHT22;22551;52.206;4.856;2023-05-02T01:04:56;10.30;99.90
36548;DHT22;22551;52.206;4.856;2023-05-02T01:10:11;10.20;99.90
36548;DHT22;22551;52.206;4.856;2023-05-02T01:15:20;10.20;99.90
36548;DHT22;22551;52.206;4.856;2023-05-02T01:20:27;10.10;99.90
36548;DHT22;22551;52.206;4.856;2023-05-02T01:25:36;10.10;99.90
36548;DHT22;22551;52.206;4.856;2023-05-02T01:30:46;10.00;99.90
36548;DHT22;22551;52.206;4.856;2023-05-02T01:35:51;10.00;99.90
36548;DHT22;22551;52.206;4.856;2023-05-02T01:40:56;9.90;99.90
36548;DHT22;22551;52.206;4.856;2023-05-02T01:46:05;9.80;99.90
36548;DHT22;22551;52.206;4.856;2023-05-02T01:51:08;9.70;99.90
36548;DHT22;22551;52.206;4.856;2023-05-02T01:56:11;9.70;99.90
36548;DHT22;22551;52.206;4.856;2023-05-02T02:01:16;9.50;99.90
36548;DHT22;22551;52.206;4.856;2023-05-02T02:06:20;9.60;99.90
36548;DHT22;22551;52.206;4.856;2023-05-02T02:11:26;9.50;99.90
36548;DHT22;22551;52.206;4.856;2023-05-02T02:16:36;9.40;99.90
36548;DHT22;22551;52.206;4.856;2023-05-02T02:21:40;9.40;99.90
36548;DHT22;22551;52.206;4.856;2023-05-02T02:26:43;9.30;99.90
36548;DHT22;22551;52.206;4.856;2023-05-02T02:31:48;9.30;99.90
36548;DHT22;22551;52.206;4.856;2023-05-02T02:36:55;9.30;99.90
36548;DHT22;22551;52.206;4.856;2023-05-02T02:42:06;9.40;99.90
36548;DHT22;22551;52.206;4.856;2023-05-02T02:47:18;9.40;99.90
36548;DHT22;22551;52.206;4.856;2023-05-02T02:52:31;9.30;99.90
36548;DHT22;22551;52.206;4.856;2023-05-02T02:57:40;9.40;99.90
36548;DHT22;22551;52.206;4.856;2023-05-02T03:02:48;9.40;99.90
36548;DHT22;22551;52.206;4.856;2023-05-02T03:07:50;9.30;99.90
36548;DHT22;22551;52.206;4.856;2023-05-02T03:12:53;9.30;99.90
36548;DHT22;22551;52.206;4.856;2023-05-02T03:17:57;9.40;99.90
36548;DHT22;22551;52.206;4.856;2023-05-02T03:22:59;9.30;99.90
36548;DHT22;22551;52.206;4.856;2023-05-02T03:28:01;9.30;99.90
36548;DHT22;22551;52.206;4.856;2023-05-02T03:33:04;9.20;99.90
36548;DHT22;22551;52.206;4.856;2023-05-02T03:38:11;9.20;99.90
36548;DHT22;22551;52.206;4.856;2023-05-02T03:43:13;9.30;99.90
36548;DHT22;22551;52.206;4.856;2023-05-02T03:48:16;9.20;99.90
36548;DHT22;22551;52.206;4.856;2023-05-02T03:53:20;9.20;99.90
36548;DHT22;22551;52.206;4.856;2023-05-02T03:58:22;9.10;99.90
36548;DHT22;22551;52.206;4.856;2023-05-02T04:03:28;9.00;99.90
36548;DHT22;22551;52.206;4.856;2023-05-02T04:08:30;9.00;99.90
36548;DHT22;22551;52.206;4.856;2023-05-02T04:13:32;9.10;99.90
36548;DHT22;22551;52.206;4.856;2023-05-02T04:18:36;9.10;99.90
36548;DHT22;22551;52.206;4.856;2023-05-02T04:23:38;9.10;99.90
36548;DHT22;22551;52.206;4.856;2023-05-02T04:28:40;9.10;99.90
36548;DHT22;22551;52.206;4.856;2023-05-02T04:33:44;9.00;99.90
36548;DHT22;22551;52.206;4.856;2023-05-02T04:38:48;8.90;99.90
36548;DHT22;22551;52.206;4.856;2023-05-02T04:43:50;8.90;99.90
36548;DHT22;22551;52.206;4.856;2023-05-02T04:48:54;8.90;99.90
36548;DHT22;22551;52.206;4.856;2023-05-02T04:53:56;8.80;99.90
36548;DHT22;22551;52.206;4.856;2023-05-02T04:58:58;8.80;99.90
36548;DHT22;22551;52.206;4.856;2023-05-02T05:04:02;8.90;99.90
36548;DHT22;22551;52.206;4.856;2023-05-02T05:09:04;8.90;99.90
36548;DHT22;22551;52.206;4.856;2023-05-02T05:14:06;8.80;99.90
36548;DHT22;22551;52.206;4.856;2023-05-02T05:19:10;8.90;99.90
36548;DHT22;22551;52.206;4.856;2023-05-02T05:24:12;8.90;99.90
36548;DHT22;22551;52.206;4.856;2023-05-02T05:29:14;8.90;99.90
36548;DHT22;22551;52.206;4.856;2023-05-02T05:34:19;8.90;99.90
36548;DHT22;22551;52.206;4.856;2023-05-02T05:39:21;9.00;99.90
36548;DHT22;22551;52.206;4.856;2023-05-02T05:44:24;9.10;99.90
36548;DHT22;22551;52.206;4.856;2023-05-02T05:49:28;9.20;99.90
36548;DHT22;22551;52.206;4.856;2023-05-02T05:54:30;9.00;99.90
36548;DHT22;22551;52.206;4.856;2023-05-02T05:59:34;9.10;99.90
36548;DHT22;22551;52.206;4.856;2023-05-02T06:04:38;9.10;99.90
36548;DHT22;22551;52.206;4.856;2023-05-02T06:09:40;9.20;99.90
36548;DHT22;22551;52.206;4.856;2023-05-02T06:14:42;9.30;99.90
36548;DHT22;22551;52.206;4.856;2023-05-02T06:19:46;9.30;99.90
36548;DHT22;22551;52.206;4.856;2023-05-02T06:24:48;9.40;99.90
36548;DHT22;22551;52.206;4.856;2023-05-02T06:29:51;9.30;99.90
36548;DHT22;22551;52.206;4.856;2023-05-02T06:34:54;9.20;99.90
36548;DHT22;22551;52.206;4.856;2023-05-02T06:39:56;9.00;99.90
36548;DHT22;22551;52.206;4.856;2023-05-02T06:44:59;9.10;99.90
36548;DHT22;22551;52.206;4.856;2023-05-02T06:50:02;9.10;99.90
36548;DHT22;22551;52.206;4.856;2023-05-02T06:55:06;9.20;99.90
36548;DHT22;22551;52.206;4.856;2023-05-02T07:00:10;9.00;99.90
36548;DHT22;22551;52.206;4.856;2023-05-02T07:05:15;9.20;99.90
36548;DHT22;22551;52.206;4.856;2023-05-02T07:10:17;9.10;99.90
36548;DHT22;22551;52.206;4.856;2023-05-02T07:15:19;9.10;99.90
36548;DHT22;22551;52.206;4.856;2023-05-02T07:20:23;9.50;99.90
36548;DHT22;22551;52.206;4.856;2023-05-02T07:25:25;9.40;99.90
36548;DHT22;22551;52.206;4.856;2023-05-02T07:30:28;9.70;99.90
36548;DHT22;22551;52.206;4.856;2023-05-02T07:35:31;9.90;99.90
36548;DHT22;22551;52.206;4.856;2023-05-02T07:40:33;10.10;99.90
36548;DHT22;22551;52.206;4.856;2023-05-02T07:45:35;10.00;99.90
36548;DHT22;22551;52.206;4.856;2023-05-02T07:50:39;10.40;99.90
36548;DHT22;22551;52.206;4.856;2023-05-02T07:55:41;11.00;99.90
36548;DHT22;22551;52.206;4.856;2023-05-02T08:00:43;10.60;99.90
36548;DHT22;22551;52.206;4.856;2023-05-02T08:05:47;10.40;99.90
36548;DHT22;22551;52.206;4.856;2023-05-02T08:10:49;10.40;99.90
36548;DHT22;22551;52.206;4.856;2023-05-02T08:15:52;10.20;99.90
36548;DHT22;22551;52.206;4.856;2023-05-02T08:20:58;9.90;99.90
36548;DHT22;22551;52.206;4.856;2023-05-02T08:26:01;9.90;99.90
36548;DHT22;22551;52.206;4.856;2023-05-02T08:31:03;10.10;99.90
36548;DHT22;22551;52.206;4.856;2023-05-02T08:36:12;10.00;99.90
36548;DHT22;22551;52.206;4.856;2023-05-02T08:41:15;10.40;99.90
36548;DHT22;22551;52.206;4.856;2023-05-02T08:46:21;10.40;99.90
36548;DHT22;22551;52.206;4.856;2023-05-02T08:51:26;10.30;99.90
36548;DHT22;22551;52.206;4.856;2023-05-02T08:56:29;10.40;99.90
36548;DHT22;22551;52.206;4.856;2023-05-02T09:01:32;10.60;99.90
36548;DHT22;22551;52.206;4.856;2023-05-02T09:06:37;11.00;99.90
36548;DHT22;22551;52.206;4.856;2023-05-02T09:11:40;11.00;99.90
36548;DHT22;22551;52.206;4.856;2023-05-02T09:16:47;10.90;99.90
36548;DHT22;22551;52.206;4.856;2023-05-02T09:21:51;10.70;99.90
36548;DHT22;22551;52.206;4.856;2023-05-02T09:26:58;10.70;99.90
36548;DHT22;22551;52.206;4.856;2023-05-02T09:32:02;11.30;99.90
36548;DHT22;22551;52.206;4.856;2023-05-02T09:37:06;11.20;99.90
36548;DHT22;22551;52.206;4.856;2023-05-02T09:42:09;11.40;99.90
36548;DHT22;22551;52.206;4.856;2023-05-02T09:47:23;11.30;99.90
36548;DHT22;22551;52.206;4.856;2023-05-02T09:52:28;11.60;99.90
36548;DHT22;22551;52.206;4.856;2023-05-02T09:57:38;12.40;99.90
36548;DHT22;22551;52.206;4.856;2023-05-02T10:02:42;12.00;99.90
36548;DHT22;22551;52.206;4.856;2023-05-02T10:07:46;12.00;99.90
36548;DHT22;22551;52.206;4.856;2023-05-02T10:12:49;12.10;99.90
36548;DHT22;22551;52.206;4.856;2023-05-02T10:17:53;12.30;99.90
36548;DHT22;22551;52.206;4.856;2023-05-02T10:23:00;13.30;99.90
36548;DHT22;22551;52.206;4.856;2023-05-02T10:28:03;13.70;99.90
36548;DHT22;22551;52.206;4.856;2023-05-02T10:33:08;14.20;99.90
36548;DHT22;22551;52.206;4.856;2023-05-02T10:38:13;14.20;99.90
36548;DHT22;22551;52.206;4.856;2023-05-02T10:43:18;13.80;99.90
36548;DHT22;22551;52.206;4.856;2023-05-02T10:48:22;13.50;99.90
36548;DHT22;22551;52.206;4.856;2023-05-02T10:53:29;13.60;99.90
36548;DHT22;22551;52.206;4.856;2023-05-02T10:58:33;13.50;99.90
36548;DHT22;22551;52.206;4.856;2023-05-02T11:03:54;13.30;99.90
36548;DHT22;22551;52.206;4.856;2023-05-02T11:09:33;13.90;99.90
36548;DHT22;22551;52.206;4.856;2023-05-02T11:14:46;13.80;99.90
36548;DHT22;22551;52.206;4.856;2023-05-02T11:25:30;12.30;99.90
36548;DHT22;22551;52.206;4.856;2023-05-02T11:30:39;13.00;99.90
36548;DHT22;22551;52.206;4.856;2023-05-02T11:35:47;14.00;99.90
36548;DHT22;22551;52.206;4.856;2023-05-02T11:40:57;13.20;99.90
36548;DHT22;22551;52.206;4.856;2023-05-02T11:46:00;13.40;99.90
36548;DHT22;22551;52.206;4.856;2023-05-02T11:51:04;12.50;99.90
36548;DHT22;22551;52.206;4.856;2023-05-02T11:56:08;12.70;99.90
36548;DHT22;22551;52.206;4.856;2023-05-02T12:01:11;12.90;99.90
36548;DHT22;22551;52.206;4.856;2023-05-02T12:06:15;13.00;99.90
36548;DHT22;22551;52.206;4.856;2023-05-02T12:11:22;13.10;99.90
36548;DHT22;22551;52.206;4.856;2023-05-02T12:16:24;13.90;99.90
36548;DHT22;22551;52.206;4.856;2023-05-02T12:21:28;14.90;99.80
36548;DHT22;22551;52.206;4.856;2023-05-02T12:26:33;14.80;99.60
36548;DHT22;22551;52.206;4.856;2023-05-02T12:31:36;14.90;98.90
36548;DHT22;22551;52.206;4.856;2023-05-02T12:36:42;15.70;98.20
36548;DHT22;22551;52.206;4.856;2023-05-02T12:41:47;14.50;99.80
36548;DHT22;22551;52.206;4.856;2023-05-02T12:46:58;15.00;99.60
36548;DHT22;22551;52.206;4.856;2023-05-02T12:52:00;14.60;99.90
36548;DHT22;22551;52.206;4.856;2023-05-02T12:57:04;14.40;99.90
36548;DHT22;22551;52.206;4.856;2023-05-02T13:02:06;14.00;99.80
36548;DHT22;22551;52.206;4.856;2023-05-02T13:07:09;14.20;99.90
36548;DHT22;22551;52.206;4.856;2023-05-02T13:12:12;13.60;99.90
36548;DHT22;22551;52.206;4.856;2023-05-02T13:17:15;14.20;99.90
36548;DHT22;22551;52.206;4.856;2023-05-02T13:22:17;14.70;99.50
36548;DHT22;22551;52.206;4.856;2023-05-02T13:27:22;14.30;99.90
36548;DHT22;22551;52.206;4.856;2023-05-02T13:32:24;14.10;99.90
36548;DHT22;22551;52.206;4.856;2023-05-02T13:37:26;14.60;99.90
36548;DHT22;22551;52.206;4.856;2023-05-02T13:42:30;15.40;99.90
36548;DHT22;22551;52.206;4.856;2023-05-02T13:47:32;14.70;99.90
36548;DHT22;22551;52.206;4.856;2023-05-02T13:52:34;13.90;99.90
36548;DHT22;22551;52.206;4.856;2023-05-02T13:57:39;14.30;99.90
36548;DHT22;22551;52.206;4.856;2023-05-02T14:02:42;15.20;99.90
36548;DHT22;22551;52.206;4.856;2023-05-02T14:07:46;14.20;99.90
36548;DHT22;22551;52.206;4.856;2023-05-02T14:12:49;14.00;99.90
36548;DHT22;22551;52.206;4.856;2023-05-02T14:17:52;13.90;99.90
36548;DHT22;22551;52.206;4.856;2023-05-02T14:22:54;13.70;99.90
36548;DHT22;22551;52.206;4.856;2023-05-02T14:27:58;13.40;99.90
36548;DHT22;22551;52.206;4.856;2023-05-02T14:33:01;13.10;99.90
36548;DHT22;22551;52.206;4.856;2023-05-02T14:38:03;13.20;99.90
36548;DHT22;22551;52.206;4.856;2023-05-02T14:43:07;12.90;99.90
36548;DHT22;22551;52.206;4.856;2023-05-02T14:48:11;12.90;99.90
36548;DHT22;22551;52.206;4.856;2023-05-02T14:53:13;13.50;99.90
36548;DHT22;22551;52.206;4.856;2023-05-02T14:58:17;13.70;99.90
36548;DHT22;22551;52.206;4.856;2023-05-02T15:03:19;13.50;99.90
36548;DHT22;22551;52.206;4.856;2023-05-02T15:08:22;12.90;99.90
36548;DHT22;22551;52.206;4.856;2023-05-02T15:13:26;13.40;99.90
36548;DHT22;22551;52.206;4.856;2023-05-02T15:18:28;13.10;99.90
36548;DHT22;22551;52.206;4.856;2023-05-02T15:23:30;13.10;99.90
36548;DHT22;22551;52.206;4.856;2023-05-02T15:28:34;12.90;99.90
36548;DHT22;22551;52.206;4.856;2023-05-02T15:33:36;12.60;99.90
36548;DHT22;22551;52.206;4.856;2023-05-02T15:38:39;12.90;99.90
36548;DHT22;22551;52.206;4.856;2023-05-02T15:43:43;12.90;99.90
36548;DHT22;22551;52.206;4.856;2023-05-02T15:48:45;12.40;99.90
36548;DHT22;22551;52.206;4.856;2023-05-02T15:53:48;12.50;99.90
36548;DHT22;22551;52.206;4.856;2023-05-02T15:58:53;13.10;99.90
36548;DHT22;22551;52.206;4.856;2023-05-02T16:03:55;12.50;99.90
36548;DHT22;22551;52.206;4.856;2023-05-02T16:08:57;12.40;99.90
36548;DHT22;22551;52.206;4.856;2023-05-02T16:14:01;12.60;99.90
36548;DHT22;22551;52.206;4.856;2023-05-02T16:19:03;12.80;99.90
36548;DHT22;22551;52.206;4.856;2023-05-02T16:24:12;12.40;99.90
36548;DHT22;22551;52.206;4.856;2023-05-02T16:29:16;12.40;99.90
36548;DHT22;22551;52.206;4.856;2023-05-02T16:34:18;12.30;99.90
36548;DHT22;22551;52.206;4.856;2023-05-02T16:39:20;11.80;99.90
36548;DHT22;22551;52.206;4.856;2023-05-02T16:44:24;12.00;99.90
36548;DHT22;22551;52.206;4.856;2023-05-02T16:49:26;11.90;99.90
36548;DHT22;22551;52.206;4.856;2023-05-02T16:54:28;12.10;99.90
36548;DHT22;22551;52.206;4.856;2023-05-02T16:59:31;11.90;99.90
36548;DHT22;22551;52.206;4.856;2023-05-02T17:21:00;11.70;99.90
36548;DHT22;22551;52.206;4.856;2023-05-02T17:26:02;11.20;99.90
36548;DHT22;22551;52.206;4.856;2023-05-02T17:31:13;10.90;99.90
36548;DHT22;22551;52.206;4.856;2023-05-02T17:36:17;11.10;99.90
36548;DHT22;22551;52.206;4.856;2023-05-02T17:41:19;10.80;99.90
36548;DHT22;22551;52.206;4.856;2023-05-02T17:46:22;10.90;99.90
36548;DHT22;22551;52.206;4.856;2023-05-02T17:51:25;10.90;99.90
36548;DHT22;22551;52.206;4.856;2023-05-02T17:56:27;10.50;99.90
36548;DHT22;22551;52.206;4.856;2023-05-02T18:01:30;10.60;99.90
36548;DHT22;22551;52.206;4.856;2023-05-02T18:06:33;10.60;99.90
36548;DHT22;22551;52.206;4.856;2023-05-02T18:11:35;10.50;99.90
36548;DHT22;22551;52.206;4.856;2023-05-02T18:16:38;10.30;99.90
36548;DHT22;22551;52.206;4.856;2023-05-02T18:21:47;10.00;99.90
36548;DHT22;22551;52.206;4.856;2023-05-02T18:26:49;10.00;99.90
36548;DHT22;22551;52.206;4.856;2023-05-02T18:31:52;10.10;99.90
36548;DHT22;22551;52.206;4.856;2023-05-02T18:36:57;10.00;99.90
36548;DHT22;22551;52.206;4.856;2023-05-02T18:42:01;9.80;99.90
36548;DHT22;22551;52.206;4.856;2023-05-02T18:47:03;10.00;99.90
36548;DHT22;22551;52.206;4.856;2023-05-02T18:52:07;10.10;99.90
36548;DHT22;22551;52.206;4.856;2023-05-02T18:57:09;10.00;99.90
36548;DHT22;22551;52.206;4.856;2023-05-02T19:02:13;9.80;99.90
36548;DHT22;22551;52.206;4.856;2023-05-02T19:07:17;9.60;99.90
36548;DHT22;22551;52.206;4.856;2023-05-02T19:12:19;9.60;99.90
36548;DHT22;22551;52.206;4.856;2023-05-02T19:17:21;9.50;99.90
36548;DHT22;22551;52.206;4.856;2023-05-02T19:22:26;9.40;99.90
36548;DHT22;22551;52.206;4.856;2023-05-02T19:27:30;9.40;99.90
36548;DHT22;22551;52.206;4.856;2023-05-02T19:32:32;9.20;99.90
36548;DHT22;22551;52.206;4.856;2023-05-02T19:37:36;9.20;99.90
36548;DHT22;22551;52.206;4.856;2023-05-02T19:42:38;9.00;99.90
36548;DHT22;22551;52.206;4.856;2023-05-02T19:47:40;9.00;99.90
36548;DHT22;22551;52.206;4.856;2023-05-02T19:52:46;8.90;99.90
36548;DHT22;22551;52.206;4.856;2023-05-02T19:57:48;8.80;99.90
36548;DHT22;22551;52.206;4.856;2023-05-02T20:02:50;8.60;99.90
36548;DHT22;22551;52.206;4.856;2023-05-02T20:07:54;8.70;99.90
36548;DHT22;22551;52.206;4.856;2023-05-02T20:12:56;8.50;99.90
36548;DHT22;22551;52.206;4.856;2023-05-02T20:17:58;8.30;99.90
36548;DHT22;22551;52.206;4.856;2023-05-02T20:23:03;8.30;99.90
36548;DHT22;22551;52.206;4.856;2023-05-02T20:28:05;8.10;99.90
36548;DHT22;22551;52.206;4.856;2023-05-02T20:33:07;8.10;99.90
36548;DHT22;22551;52.206;4.856;2023-05-02T20:38:11;8.10;99.90
36548;DHT22;22551;52.206;4.856;2023-05-02T20:43:13;8.10;99.90
36548;DHT22;22551;52.206;4.856;2023-05-02T20:48:18;8.00;99.90
36548;DHT22;22551;52.206;4.856;2023-05-02T20:53:21;7.90;99.90
36548;DHT22;22551;52.206;4.856;2023-05-02T20:58:23;8.00;99.90
36548;DHT22;22551;52.206;4.856;2023-05-02T21:03:26;7.90;99.90
36548;DHT22;22551;52.206;4.856;2023-05-02T21:08:30;7.90;99.90
36548;DHT22;22551;52.206;4.856;2023-05-02T21:13:32;7.80;99.90
36548;DHT22;22551;52.206;4.856;2023-05-02T21:18:34;7.70;99.90
36548;DHT22;22551;52.206;4.856;2023-05-02T21:23:38;7.70;99.90
36548;DHT22;22551;52.206;4.856;2023-05-02T21:28:40;7.70;99.90
36548;DHT22;22551;52.206;4.856;2023-05-02T21:33:43;7.70;99.90
36548;DHT22;22551;52.206;4.856;2023-05-02T21:38:46;7.60;99.90
36548;DHT22;22551;52.206;4.856;2023-05-02T21:43:48;7.60;99.90
36548;DHT22;22551;52.206;4.856;2023-05-02T21:48:51;7.50;99.90
36548;DHT22;22551;52.206;4.856;2023-05-02T21:53:54;7.40;99.90
36548;DHT22;22551;52.206;4.856;2023-05-02T21:58:56;7.40;99.90
36548;DHT22;22551;52.206;4.856;2023-05-02T22:03:59;7.30;99.90
36548;DHT22;22551;52.206;4.856;2023-05-02T22:09:02;7.40;99.90
36548;DHT22;22551;52.206;4.856;2023-05-02T22:14:04;7.30;99.90
36548;DHT22;22551;52.206;4.856;2023-05-02T22:19:07;7.30;99.90
36548;DHT22;22551;52.206;4.856;2023-05-02T22:24:12;7.20;99.90
36548;DHT22;22551;52.206;4.856;2023-05-02T22:29:14;7.10;99.90
36548;DHT22;22551;52.206;4.856;2023-05-02T22:49:49;6.90;99.90
36548;DHT22;22551;52.206;4.856;2023-05-02T22:54:51;6.80;99.90
